Time;durP1;ratioP1;P1;durP2;ratioP2;P2;SDS_P1;SDS_P2;PMS_P1;PMS_P2;Temp;Humidity;BMP_temperature;BMP_pressure;BME280_temperature;BME280_humidity;BME280_pressure;Samples;Min_cycle;Max_cycle;Signal;HPM_P1;HPM_P2
2021/05/13 00:01:17;;;;;;;5.18;4.68;;;9.40;99.10;;;;;;5023668;28;20212;-81
2021/05/13 00:03:43;;;;;;;5.85;5.30;;;9.30;99.00;;;;;;5007836;28;20272;-81
2021/05/13 00:06:10;;;;;;;6.07;5.47;;;9.30;99.10;;;;;;5006810;28;20675;-82
2021/05/13 00:08:37;;;;;;;8.80;5.55;;;9.20;99.10;;;;;;5028893;28;20265;-82
2021/05/13 00:11:05;;;;;;;5.63;4.55;;;9.20;99.10;;;;;;5026429;28;20200;-81
2021/05/13 00:13:33;;;;;;;6.07;5.18;;;9.10;99.40;;;;;;5007937;28;20212;-82
2021/05/13 00:15:59;;;;;;;5.28;4.80;;;9.10;99.70;;;;;;5014353;28;20205;-83
2021/05/13 00:18:27;;;;;;;5.72;4.90;;;9.00;99.70;;;;;;5017352;28;20235;-84
2021/05/13 00:20:54;;;;;;;6.82;5.05;;;9.00;99.90;;;;;;5019612;28;20239;-84
2021/05/13 00:23:21;;;;;;;6.65;5.15;;;9.10;99.90;;;;;;5018163;28;20228;-83
2021/05/13 00:25:50;;;;;;;6.35;5.32;;;9.00;99.90;;;;;;5032217;28;20222;-83
2021/05/13 00:28:17;;;;;;;4.90;4.50;;;9.10;99.90;;;;;;5031989;28;20267;-84
2021/05/13 00:30:44;;;;;;;4.75;4.35;;;9.20;99.90;;;;;;5026847;28;20208;-82
2021/05/13 00:33:11;;;;;;;5.10;4.65;;;9.30;99.90;;;;;;5033644;28;20226;-83
2021/05/13 00:35:38;;;;;;;7.78;4.25;;;9.30;99.90;;;;;;5035128;28;20200;-83
2021/05/13 00:38:05;;;;;;;4.88;4.38;;;9.30;99.90;;;;;;5035378;28;20569;-82
2021/05/13 00:40:32;;;;;;;5.75;5.25;;;9.30;99.90;;;;;;5036867;28;20216;-84
2021/05/13 00:43:00;;;;;;;5.10;4.60;;;9.30;99.90;;;;;;5031202;28;20192;-83
2021/05/13 00:45:27;;;;;;;5.95;4.55;;;9.20;99.90;;;;;;5018245;28;20227;-82
2021/05/13 00:48:04;;;;;;;5.53;4.40;;;9.10;99.90;;;;;;5014339;28;20211;-81
2021/05/13 00:50:32;;;;;;;7.82;4.80;;;9.10;99.90;;;;;;5015289;28;20243;-84
2021/05/13 00:53:01;;;;;;;7.53;4.30;;;9.10;99.90;;;;;;5018976;28;20188;-84
2021/05/13 00:55:27;;;;;;;6.82;4.25;;;9.10;99.90;;;;;;5019006;28;20200;-81
2021/05/13 00:57:55;;;;;;;4.63;4.22;;;9.10;99.90;;;;;;5018788;28;20201;-83
2021/05/13 01:00:39;;;;;;;6.82;4.18;;;9.10;99.90;;;;;;5014826;28;20220;-83
2021/05/13 01:03:07;;;;;;;7.03;3.95;;;9.00;99.90;;;;;;5023265;28;20204;-83
2021/05/13 01:05:35;;;;;;;4.90;4.30;;;9.10;99.90;;;;;;5035830;28;20236;-81
2021/05/13 01:08:02;;;;;;;4.88;3.92;;;9.00;99.90;;;;;;5028610;28;20204;-81
2021/05/13 01:10:29;;;;;;;7.20;4.90;;;8.90;99.90;;;;;;5023137;28;20726;-82
2021/05/13 01:12:59;;;;;;;7.50;4.45;;;8.90;99.90;;;;;;5022709;28;20219;-81
2021/05/13 01:15:37;;;;;;;4.40;4.00;;;8.90;99.90;;;;;;5026983;28;20306;-81
2021/05/13 01:18:07;;;;;;;5.32;3.72;;;8.80;99.90;;;;;;5023310;28;20204;-82
2021/05/13 01:20:35;;;;;;;5.10;4.60;;;8.70;99.90;;;;;;5015377;28;20271;-83
2021/05/13 01:23:02;;;;;;;5.90;3.97;;;8.70;99.90;;;;;;5018540;28;20212;-84
2021/05/13 01:25:30;;;;;;;7.97;4.07;;;8.60;99.90;;;;;;5018536;28;20228;-83
2021/05/13 01:27:58;;;;;;;3.60;3.30;;;8.70;99.90;;;;;;5017967;28;20188;-84
2021/05/13 01:30:25;;;;;;;4.40;3.75;;;8.60;99.90;;;;;;5012962;28;20224;-82
2021/05/13 01:32:52;;;;;;;4.25;3.85;;;8.60;99.90;;;;;;5012652;28;20208;-83
2021/05/13 01:35:18;;;;;;;4.43;3.63;;;8.70;99.90;;;;;;5036817;28;20219;-80
2021/05/13 01:37:45;;;;;;;5.10;4.10;;;8.60;99.90;;;;;;5034435;28;20208;-84
2021/05/13 01:40:14;;;;;;;4.57;3.50;;;8.60;99.90;;;;;;5035093;28;20218;-84
2021/05/13 01:42:40;;;;;;;4.68;3.63;;;8.50;99.90;;;;;;5021627;28;20204;-82
2021/05/13 01:45:08;;;;;;;7.28;3.75;;;8.50;99.90;;;;;;5017480;28;20219;-83
2021/05/13 01:47:36;;;;;;;5.97;3.55;;;8.40;99.90;;;;;;5017540;28;20192;-83
2021/05/13 01:50:04;;;;;;;6.05;4.05;;;8.40;99.90;;;;;;5013532;28;20248;-83
2021/05/13 01:52:30;;;;;;;6.10;4.15;;;8.40;99.90;;;;;;5030465;28;20203;-83
2021/05/13 01:54:57;;;;;;;4.85;4.00;;;8.40;99.90;;;;;;5038153;28;20192;-83
2021/05/13 01:57:24;;;;;;;4.70;3.38;;;8.30;99.90;;;;;;5019797;28;20305;-83
2021/05/13 01:59:51;;;;;;;5.38;3.85;;;8.30;99.90;;;;;;5007045;28;20715;-83
2021/05/13 02:02:20;;;;;;;4.57;3.58;;;8.30;99.90;;;;;;5024658;28;20481;-82
2021/05/13 02:04:47;;;;;;;4.00;3.60;;;8.30;99.90;;;;;;5022386;28;20224;-81
2021/05/13 02:07:14;;;;;;;4.68;4.28;;;8.30;99.90;;;;;;5025500;28;20230;-82
2021/05/13 02:09:41;;;;;;;4.55;4.15;;;8.20;99.90;;;;;;5021811;28;20782;-82
2021/05/13 02:12:08;;;;;;;5.82;4.75;;;8.20;99.90;;;;;;5029956;28;20227;-82
2021/05/13 02:14:35;;;;;;;4.88;3.92;;;8.10;99.90;;;;;;5026887;28;20204;-83
2021/05/13 02:17:02;;;;;;;5.32;4.20;;;8.10;99.90;;;;;;5012006;28;20527;-83
2021/05/13 02:19:28;;;;;;;4.72;4.30;;;8.10;99.90;;;;;;5019681;28;20223;-84
2021/05/13 02:21:55;;;;;;;5.90;4.15;;;8.10;99.90;;;;;;5034107;28;20208;-82
2021/05/13 02:24:21;;;;;;;4.85;3.70;;;8.10;99.90;;;;;;5031988;28;20216;-84
2021/05/13 02:26:48;;;;;;;3.97;3.67;;;8.20;99.90;;;;;;5034965;28;20258;-82
2021/05/13 02:29:14;;;;;;;6.30;4.63;;;8.30;99.90;;;;;;5028590;28;20224;-83
2021/05/13 02:31:42;;;;;;;4.95;4.43;;;8.30;99.90;;;;;;5006189;28;20220;-81
2021/05/13 02:34:08;;;;;;;9.38;5.35;;;8.30;99.90;;;;;;5008239;28;20205;-82
2021/05/13 02:36:36;;;;;;;5.40;4.03;;;8.30;99.90;;;;;;5006007;28;20444;-83
2021/05/13 02:39:03;;;;;;;4.78;4.25;;;8.30;99.90;;;;;;5005063;28;20224;-82
2021/05/13 02:41:29;;;;;;;4.50;3.92;;;8.30;99.90;;;;;;5022148;28;20208;-82
2021/05/13 02:43:56;;;;;;;4.95;4.30;;;8.30;99.90;;;;;;5029804;28;20242;-81
2021/05/13 02:46:22;;;;;;;5.10;4.60;;;8.40;99.90;;;;;;5016727;28;20232;-82
2021/05/13 02:48:49;;;;;;;4.70;4.25;;;8.30;99.90;;;;;;5000637;28;20211;-82
2021/05/13 02:51:16;;;;;;;4.65;4.13;;;8.30;99.90;;;;;;5000786;28;20247;-83
2021/05/13 02:53:43;;;;;;;4.25;3.85;;;8.30;99.90;;;;;;5001101;28;20212;-80
2021/05/13 02:56:09;;;;;;;5.80;3.95;;;8.30;99.90;;;;;;5007484;28;20661;-81
2021/05/13 02:58:35;;;;;;;5.00;3.72;;;8.30;99.90;;;;;;5007908;28;20235;-82
2021/05/13 03:01:09;;;;;;;6.35;4.07;;;8.30;99.90;;;;;;5013031;28;20292;-83
2021/05/13 03:03:36;;;;;;;4.13;3.72;;;8.30;99.90;;;;;;5025550;28;20246;-83
2021/05/13 03:06:03;;;;;;;4.97;4.47;;;8.20;99.90;;;;;;5019661;28;20536;-83
2021/05/13 03:08:30;;;;;;;6.53;4.30;;;8.20;99.90;;;;;;5008080;28;20248;-83
2021/05/13 03:10:57;;;;;;;4.30;3.90;;;8.20;99.90;;;;;;5008157;28;20220;-80
2021/05/13 03:13:26;;;;;;;6.50;4.00;;;8.20;99.90;;;;;;5008705;28;20196;-81
2021/05/13 03:15:53;;;;;;;9.05;4.38;;;8.20;99.90;;;;;;5015934;28;20195;-80
2021/05/13 03:18:22;;;;;;;4.00;3.50;;;8.10;99.90;;;;;;5034971;28;20234;-81
2021/05/13 03:20:52;;;;;;;5.90;4.10;;;8.10;99.80;;;;;;5036084;28;20196;-81
2021/05/13 03:23:25;;;;;;;4.32;3.92;;;8.10;99.80;;;;;;5035385;28;20203;-81
2021/05/13 03:25:58;;;;;;;4.57;3.95;;;8.00;99.80;;;;;;5022725;28;20227;-81
2021/05/13 03:28:25;;;;;;;4.45;4.05;;;8.00;99.60;;;;;;5020039;28;20199;-81
2021/05/13 03:30:51;;;;;;;5.00;3.72;;;7.90;99.50;;;;;;5001126;28;20786;-81
2021/05/13 03:33:18;;;;;;;3.53;3.20;;;7.80;99.30;;;;;;5002327;28;20568;-81
2021/05/13 03:35:45;;;;;;;4.07;3.67;;;7.80;99.50;;;;;;5025029;28;20208;-85
2021/05/13 03:38:12;;;;;;;4.07;3.67;;;7.80;99.70;;;;;;5030750;28;20199;-84
2021/05/13 03:40:41;;;;;;;6.95;3.35;;;7.80;99.80;;;;;;5018131;28;20224;-82
2021/05/13 03:43:08;;;;;;;3.60;3.30;;;7.80;99.90;;;;;;5013752;28;20205;-85
2021/05/13 03:45:35;;;;;;;4.05;3.63;;;7.80;99.90;;;;;;5015281;28;20244;-85
2021/05/13 03:48:02;;;;;;;4.28;3.88;;;7.80;99.90;;;;;;5016774;28;20196;-86
2021/05/13 03:50:30;;;;;;;4.45;4.05;;;7.80;99.90;;;;;;5017090;28;20380;-84
2021/05/13 03:52:56;;;;;;;3.90;3.60;;;7.80;99.90;;;;;;5016903;28;20203;-85
2021/05/13 03:55:23;;;;;;;8.52;3.45;;;7.80;99.90;;;;;;5016895;28;20200;-86
2021/05/13 03:57:51;;;;;;;4.40;4.00;;;7.80;99.90;;;;;;5016371;28;20192;-85
2021/05/13 04:00:26;;;;;;;3.35;3.00;;;7.80;99.90;;;;;;5015940;28;20284;-84
2021/05/13 04:02:52;;;;;;;3.70;3.40;;;7.80;99.90;;;;;;5016077;28;20196;-86
2021/05/13 04:05:19;;;;;;;7.63;3.83;;;7.80;99.90;;;;;;5014763;28;20255;-83
2021/05/13 04:07:47;;;;;;;3.95;3.55;;;7.80;99.90;;;;;;5013698;28;20229;-83
2021/05/13 04:10:15;;;;;;;3.58;2.65;;;7.80;99.90;;;;;;5013521;28;20236;-82
2021/05/13 04:12:43;;;;;;;5.78;3.10;;;7.80;99.90;;;;;;5016000;28;20205;-83
2021/05/13 04:15:12;;;;;;;3.88;3.58;;;7.90;99.90;;;;;;5015806;28;20193;-81
2021/05/13 04:17:40;;;;;;;4.40;3.13;;;8.00;99.90;;;;;;5014953;28;20201;-82
2021/05/13 04:20:08;;;;;;;4.28;3.88;;;8.10;99.90;;;;;;5015483;28;20291;-83
2021/05/13 04:22:35;;;;;;;4.25;3.95;;;8.10;99.90;;;;;;5023114;28;20187;-84
2021/05/13 04:25:02;;;;;;;4.85;4.35;;;8.20;99.90;;;;;;5039079;28;20232;-83
2021/05/13 04:27:29;;;;;;;3.97;3.67;;;8.30;99.10;;;;;;5034282;28;20211;-83
2021/05/13 04:29:55;;;;;;;3.85;3.15;;;8.40;98.30;;;;;;5039341;28;20227;-83
2021/05/13 04:32:22;;;;;;;5.03;3.22;;;8.50;98.10;;;;;;5039839;28;20199;-82
2021/05/13 04:34:49;;;;;;;5.28;4.13;;;8.50;97.10;;;;;;5031294;28;20277;-81
2021/05/13 04:37:15;;;;;;;3.70;3.28;;;8.60;96.50;;;;;;5029067;28;20571;-80
2021/05/13 04:39:42;;;;;;;4.38;3.30;;;8.80;96.40;;;;;;5023315;28;20299;-82
2021/05/13 04:42:08;;;;;;;3.78;3.30;;;8.90;94.90;;;;;;5023252;28;20212;-81
2021/05/13 04:44:36;;;;;;;4.68;3.47;;;8.90;92.70;;;;;;5023413;28;20315;-82
2021/05/13 04:47:19;;;;;;;3.10;2.80;;;9.40;91.30;;;;;;5022747;28;20215;-82
2021/05/13 04:49:48;;;;;;;5.40;2.80;;;10.00;85.50;;;;;;5051875;22;20233;-75
2021/05/13 04:52:15;;;;;;;4.47;2.53;;;11.00;82.40;;;;;;5052948;28;20290;-75
2021/05/13 04:54:41;;;;;;;4.43;2.38;;;12.10;72.30;;;;;;5053554;28;20263;-75
2021/05/13 04:57:08;;;;;;;2.70;2.50;;;12.90;63.10;;;;;;5051738;28;20289;-74
2021/05/13 04:59:34;;;;;;;2.80;2.42;;;13.60;56.90;;;;;;5044203;28;20278;-74
2021/05/13 05:02:00;;;;;;;2.70;2.50;;;14.10;53.10;;;;;;5016179;28;20262;-76
2021/05/13 05:04:27;;;;;;;5.15;1.95;;;14.70;51.60;;;;;;5029727;28;20204;-75
2021/05/13 05:06:54;;;;;;;3.20;2.50;;;15.00;49.10;;;;;;5044738;28;20245;-75
2021/05/13 05:09:20;;;;;;;3.17;2.90;;;15.30;47.20;;;;;;5038130;28;20505;-76
2021/05/13 05:11:47;;;;;;;4.18;2.70;;;15.00;47.10;;;;;;5034197;28;20199;-75
2021/05/13 05:14:13;;;;;;;9.87;4.10;;;15.10;46.70;;;;;;5035103;28;20262;-74
2021/05/13 05:16:39;;;;;;;4.22;2.70;;;15.30;44.40;;;;;;5032694;28;20550;-75
2021/05/13 05:19:06;;;;;;;3.03;2.70;;;15.10;46.30;;;;;;5015230;28;20299;-75
2021/05/13 05:21:32;;;;;;;3.70;2.60;;;15.40;44.50;;;;;;5024645;28;20296;-77
2021/05/13 05:23:59;;;;;;;2.88;2.63;;;15.20;44.40;;;;;;5035227;28;20295;-74
2021/05/13 05:26:26;;;;;;;2.63;2.28;;;15.30;44.40;;;;;;5025616;28;20568;-73
2021/05/13 05:28:52;;;;;;;3.08;2.30;;;14.40;46.90;;;;;;5027515;28;20207;-76
2021/05/13 05:31:19;;;;;;;3.72;2.45;;;14.50;47.10;;;;;;5038195;28;20328;-76
2021/05/13 05:33:45;;;;;;;2.65;2.45;;;14.80;46.30;;;;;;5043599;28;20239;-75
2021/05/13 05:36:11;;;;;;;5.07;2.70;;;14.90;46.40;;;;;;5047505;28;20278;-74
2021/05/13 05:38:38;;;;;;;2.42;2.20;;;15.10;45.60;;;;;;5045817;28;20218;-74
2021/05/13 05:41:05;;;;;;;6.23;2.80;;;15.50;44.60;;;;;;5039765;28;20261;-73
2021/05/13 05:43:31;;;;;;;2.97;2.27;;;15.70;44.10;;;;;;5036010;28;20529;-74
2021/05/13 05:45:58;;;;;;;3.00;2.70;;;15.80;44.20;;;;;;5014501;28;20483;-74
2021/05/13 05:48:24;;;;;;;2.70;2.50;;;16.10;43.30;;;;;;5021799;28;20448;-74
2021/05/13 05:50:51;;;;;;;2.87;2.50;;;16.30;42.40;;;;;;5041790;28;20567;-73
2021/05/13 05:53:17;;;;;;;3.27;2.97;;;16.80;41.40;;;;;;5050863;28;20465;-75
2021/05/13 05:55:44;;;;;;;3.80;2.67;;;17.10;40.50;;;;;;5035156;28;20430;-76
2021/05/13 05:58:12;;;;;;;3.97;2.40;;;17.60;38.90;;;;;;5034681;28;20451;-76
2021/05/13 06:00:38;;;;;;;3.90;3.33;;;17.90;38.60;;;;;;5035557;28;20438;-74
2021/05/13 06:03:05;;;;;;;2.70;2.50;;;17.80;38.20;;;;;;5033950;28;20490;-73
2021/05/13 06:05:32;;;;;;;3.87;2.70;;;17.50;39.80;;;;;;5033484;28;20501;-75
2021/05/13 06:07:58;;;;;;;3.80;3.00;;;17.30;40.20;;;;;;5031295;28;20453;-74
2021/05/13 06:10:25;;;;;;;6.53;3.00;;;15.80;43.80;;;;;;5031142;28;20479;-76
2021/05/13 06:12:53;;;;;;;2.80;2.60;;;16.50;42.20;;;;;;5035783;28;20454;-75
2021/05/13 06:15:22;;;;;;;3.00;2.70;;;16.90;40.50;;;;;;5052682;28;20683;-73
2021/05/13 06:17:48;;;;;;;7.60;2.90;;;16.80;40.10;;;;;;5047553;28;20474;-75
2021/05/13 06:20:20;;;;;;;3.27;2.63;;;15.70;43.50;;;;;;5030569;28;20524;-75
2021/05/13 06:22:47;;;;;;;3.20;2.60;;;15.90;43.30;;;;;;5029351;28;20490;-76
2021/05/13 06:25:14;;;;;;;4.80;2.63;;;16.30;42.90;;;;;;5027545;28;20497;-74
2021/05/13 06:27:41;;;;;;;3.77;3.13;;;16.80;41.60;;;;;;5026377;28;20426;-76
2021/05/13 06:30:08;;;;;;;6.97;3.70;;;16.90;39.90;;;;;;5026005;28;20449;-77
2021/05/13 06:32:36;;;;;;;3.50;2.87;;;17.10;40.70;;;;;;5025083;28;20426;-73
2021/05/13 06:35:03;;;;;;;3.10;2.70;;;17.40;39.50;;;;;;5018579;28;20539;-72
2021/05/13 06:37:29;;;;;;;3.43;2.57;;;17.40;39.00;;;;;;5016959;28;20459;-74
2021/05/13 06:39:56;;;;;;;3.00;2.70;;;17.20;40.10;;;;;;5019804;28;20481;-75
2021/05/13 06:42:22;;;;;;;4.23;2.80;;;16.80;40.80;;;;;;5035094;28;20469;-73
2021/05/13 06:44:49;;;;;;;4.43;2.93;;;16.80;39.90;;;;;;5030545;28;20497;-73
2021/05/13 06:47:16;;;;;;;3.30;3.00;;;16.80;40.10;;;;;;5024778;28;20448;-74
2021/05/13 06:49:43;;;;;;;3.27;2.87;;;16.50;40.80;;;;;;5023389;28;20483;-76
2021/05/13 06:52:10;;;;;;;2.73;2.30;;;16.00;41.40;;;;;;5019256;28;20439;-74
2021/05/13 06:54:36;;;;;;;2.83;2.60;;;15.70;42.50;;;;;;5018619;28;20455;-74
2021/05/13 06:57:06;;;;;;;7.38;2.65;;;15.20;43.40;;;;;;5017950;28;20553;-78
2021/05/13 06:59:33;;;;;;;2.88;2.53;;;14.50;45.30;;;;;;5018472;28;20227;-76
2021/05/13 07:01:59;;;;;;;2.83;2.53;;;14.60;44.00;;;;;;5019429;28;20208;-76
2021/05/13 07:04:27;;;;;;;3.22;3.00;;;14.70;45.50;;;;;;5025369;28;20219;-73
2021/05/13 07:06:54;;;;;;;7.70;2.17;;;14.70;45.40;;;;;;5038483;28;20333;-77
2021/05/13 07:09:20;;;;;;;3.22;2.00;;;14.70;43.90;;;;;;5037803;28;20210;-75
2021/05/13 07:11:47;;;;;;;2.97;2.28;;;14.40;44.60;;;;;;5038616;28;20286;-76
2021/05/13 07:14:13;;;;;;;2.42;2.22;;;14.50;45.80;;;;;;5033895;28;20247;-75
2021/05/13 07:16:39;;;;;;;4.60;3.10;;;14.10;45.70;;;;;;5015189;28;20242;-75
2021/05/13 07:19:06;;;;;;;3.60;2.35;;;13.80;46.90;;;;;;5014982;28;20239;-76
2021/05/13 07:21:33;;;;;;;2.97;2.35;;;13.90;47.10;;;;;;5014320;28;20259;-73
2021/05/13 07:24:00;;;;;;;3.83;2.38;;;14.00;47.40;;;;;;5015187;28;20235;-75
2021/05/13 07:26:27;;;;;;;2.50;2.30;;;14.30;47.00;;;;;;5033257;28;20235;-74
2021/05/13 07:28:53;;;;;;;3.75;2.35;;;14.60;46.30;;;;;;5021070;28;20263;-76
2021/05/13 07:31:20;;;;;;;4.30;1.90;;;14.70;46.20;;;;;;5014360;28;20251;-76
2021/05/13 07:33:47;;;;;;;2.60;2.40;;;14.80;44.60;;;;;;5023225;28;20249;-74
2021/05/13 07:36:14;;;;;;;6.28;2.55;;;14.80;44.00;;;;;;5037407;28;20733;-76
2021/05/13 07:38:40;;;;;;;2.40;1.95;;;14.90;44.10;;;;;;5032209;28;20203;-73
2021/05/13 07:41:08;;;;;;;2.88;1.90;;;14.90;45.40;;;;;;5027555;28;20228;-76
2021/05/13 07:43:36;;;;;;;1.90;1.70;;;15.00;44.20;;;;;;5029325;28;20246;-74
2021/05/13 07:46:02;;;;;;;4.72;2.05;;;15.10;44.30;;;;;;5020870;28;20263;-74
2021/05/13 07:48:31;;;;;;;3.05;1.70;;;15.10;44.30;;;;;;5013358;28;20199;-74
2021/05/13 07:50:58;;;;;;;2.05;1.63;;;15.20;43.30;;;;;;5011731;28;20326;-73
2021/05/13 07:53:25;;;;;;;2.05;1.60;;;15.10;42.30;;;;;;5014764;28;20286;-74
2021/05/13 07:55:52;;;;;;;2.30;1.60;;;15.20;41.80;;;;;;5033041;28;20236;-75
2021/05/13 07:58:20;;;;;;;2.47;1.77;;;15.20;42.60;;;;;;5034773;28;20242;-74
2021/05/13 08:00:46;;;;;;;3.80;1.80;;;15.30;41.90;;;;;;5042518;28;20296;-76
2021/05/13 08:03:13;;;;;;;2.05;1.65;;;15.40;42.00;;;;;;5034391;28;20314;-75
2021/05/13 08:05:39;;;;;;;1.70;1.60;;;15.60;41.70;;;;;;5035454;28;20721;-74
2021/05/13 08:08:06;;;;;;;3.08;1.75;;;15.80;39.90;;;;;;5034929;28;20231;-75
2021/05/13 08:10:32;;;;;;;2.78;1.75;;;15.90;40.10;;;;;;5035254;28;20245;-76
2021/05/13 08:12:59;;;;;;;2.47;1.50;;;16.00;39.30;;;;;;5032860;28;20720;-75
2021/05/13 08:15:26;;;;;;;2.80;1.37;;;16.20;39.80;;;;;;5035597;28;20940;-74
2021/05/13 08:17:53;;;;;;;3.00;1.60;;;16.40;39.40;;;;;;5021577;28;20490;-74
2021/05/13 08:20:20;;;;;;;1.70;1.30;;;16.60;38.70;;;;;;5014535;28;20552;-75
2021/05/13 08:22:49;;;;;;;1.67;1.20;;;16.80;39.60;;;;;;5027629;28;20486;-76
2021/05/13 08:25:19;;;;;;;4.17;1.80;;;16.90;37.70;;;;;;5035427;28;21007;-75
2021/05/13 08:27:46;;;;;;;1.90;1.43;;;16.90;38.40;;;;;;5035286;28;20431;-74
2021/05/13 08:30:14;;;;;;;1.30;1.20;;;16.80;38.40;;;;;;5025763;28;20557;-75
2021/05/13 08:32:41;;;;;;;7.20;3.47;;;16.80;39.00;;;;;;5014895;28;20446;-73
2021/05/13 08:35:09;;;;;;;4.97;1.40;;;16.80;39.30;;;;;;5015935;28;20458;-75
2021/05/13 08:37:35;;;;;;;2.67;1.43;;;16.80;39.20;;;;;;5015087;28;20995;-76
2021/05/13 08:40:02;;;;;;;4.07;1.80;;;16.70;39.40;;;;;;5032622;28;20510;-74
2021/05/13 08:42:29;;;;;;;3.27;1.50;;;16.80;39.40;;;;;;5047194;28;20461;-77
2021/05/13 08:44:56;;;;;;;2.77;1.30;;;16.90;38.20;;;;;;5045794;28;20429;-75
2021/05/13 08:47:23;;;;;;;4.60;1.80;;;16.90;37.20;;;;;;5036069;28;20453;-75
2021/05/13 08:49:50;;;;;;;5.10;2.07;;;16.90;37.80;;;;;;5037393;28;20270;-75
2021/05/13 08:52:18;;;;;;;2.40;1.63;;;16.90;37.70;;;;;;5038941;28;20477;-74
2021/05/13 08:54:51;;;;;;;2.13;1.40;;;17.00;37.70;;;;;;5020637;28;20453;-74
2021/05/13 08:57:18;;;;;;;1.80;1.60;;;17.10;37.60;;;;;;5017794;28;20526;-75
2021/05/13 08:59:44;;;;;;;2.70;2.00;;;17.40;37.50;;;;;;5016066;28;20500;-76
2021/05/13 09:02:11;;;;;;;3.17;2.10;;;17.60;37.30;;;;;;5016022;28;20450;-75
2021/05/13 09:04:39;;;;;;;3.37;2.33;;;17.80;36.70;;;;;;5023481;28;20896;-75
2021/05/13 09:07:15;;;;;;;5.10;2.10;;;17.60;36.60;;;;;;5035881;28;20543;-77
2021/05/13 09:09:55;;;;;;;1.90;1.50;;;17.30;36.30;;;;;;5032502;28;20890;-75
2021/05/13 09:12:22;;;;;;;2.80;1.77;;;17.30;36.60;;;;;;5015476;28;20499;-75
2021/05/13 09:15:00;;;;;;;4.47;2.17;;;17.40;37.20;;;;;;5029429;28;20476;-76
2021/05/13 09:17:27;;;;;;;6.00;2.10;;;17.50;37.90;;;;;;5033446;28;20874;-75
2021/05/13 09:19:54;;;;;;;6.53;2.20;;;17.50;38.60;;;;;;5027139;28;20536;-76
2021/05/13 09:22:23;;;;;;;3.10;2.20;;;17.40;37.00;;;;;;5014004;28;20822;-75
2021/05/13 09:24:52;;;;;;;4.00;2.13;;;17.30;38.30;;;;;;5019110;28;20493;-80
2021/05/13 09:27:21;;;;;;;4.40;2.27;;;17.30;38.20;;;;;;5032892;28;20450;-78
2021/05/13 09:30:00;;;;;;;3.80;2.30;;;17.40;38.20;;;;;;5028627;28;20521;-74
2021/05/13 09:32:27;;;;;;;2.67;2.13;;;17.50;37.60;;;;;;5013558;28;20450;-75
2021/05/13 09:34:53;;;;;;;2.50;2.00;;;17.50;36.50;;;;;;5021007;28;20445;-74
2021/05/13 09:37:20;;;;;;;3.67;2.00;;;17.60;36.60;;;;;;5030798;28;20507;-75
2021/05/13 09:39:49;;;;;;;3.90;1.90;;;17.50;36.50;;;;;;5033112;28;20462;-76
2021/05/13 09:42:17;;;;;;;4.03;2.20;;;17.40;36.40;;;;;;5032278;28;20416;-75
2021/05/13 09:44:46;;;;;;;5.30;2.27;;;17.70;36.70;;;;;;5032891;28;20864;-74
2021/05/13 09:47:19;;;;;;;4.87;2.40;;;17.90;36.90;;;;;;5032063;28;20485;-75
2021/05/13 09:50:02;;;;;;;1.87;1.70;;;18.10;37.00;;;;;;5013020;28;20999;-74
2021/05/13 09:52:47;;;;;;;1.93;1.70;;;18.40;37.20;;;;;;5031445;28;20454;-75
2021/05/13 09:55:23;;;;;;;2.50;2.17;;;18.80;34.00;;;;;;5012492;28;20887;-74
2021/05/13 09:57:53;;;;;;;1.93;1.60;;;18.90;33.90;;;;;;5012833;28;20871;-74
2021/05/13 10:00:41;;;;;;;3.43;2.33;;;19.00;33.90;;;;;;5012641;28;20562;-75
2021/05/13 10:03:11;;;;;;;2.83;2.07;;;19.30;33.00;;;;;;5018241;28;20525;-76
2021/05/13 10:05:38;;;;;;;3.10;1.70;;;19.30;33.00;;;;;;5031109;28;20489;-75
2021/05/13 10:08:06;;;;;;;3.87;1.80;;;19.30;31.10;;;;;;5028246;28;20597;-74
2021/05/13 10:10:33;;;;;;;3.83;2.27;;;19.50;30.70;;;;;;5012589;28;20496;-74
2021/05/13 10:12:59;;;;;;;4.93;2.20;;;19.70;31.00;;;;;;5014785;28;20455;-75
2021/05/13 10:15:28;;;;;;;2.90;2.03;;;19.60;33.00;;;;;;5031934;28;20501;-75
2021/05/13 10:17:57;;;;;;;4.37;2.37;;;19.80;33.30;;;;;;5011987;28;20451;-74
2021/05/13 10:20:26;;;;;;;4.90;2.30;;;19.70;33.70;;;;;;5012505;28;20528;-75
2021/05/13 10:22:54;;;;;;;3.03;2.00;;;19.60;33.90;;;;;;5039432;28;20537;-74
2021/05/13 10:25:29;;;;;;;3.23;2.30;;;19.70;31.40;;;;;;5032243;28;20481;-76
2021/05/13 10:27:58;;;;;;;3.57;2.70;;;19.90;30.70;;;;;;5012955;28;20526;-76
2021/05/13 10:30:28;;;;;;;3.20;2.33;;;19.70;32.20;;;;;;5012427;28;20448;-76
2021/05/13 10:33:10;;;;;;;3.13;2.80;;;19.60;33.80;;;;;;5031051;28;20524;-75
2021/05/13 10:35:38;;;;;;;2.73;2.53;;;19.50;34.30;;;;;;5019962;28;20507;-75
2021/05/13 10:38:09;;;;;;;4.73;2.40;;;19.40;34.50;;;;;;5024529;28;20428;-75
2021/05/13 10:40:45;;;;;;;3.03;2.20;;;19.50;34.50;;;;;;5052164;28;20469;-75
2021/05/13 10:43:11;;;;;;;2.20;2.00;;;19.50;34.20;;;;;;5031593;28;20431;-75
2021/05/13 10:45:40;;;;;;;4.13;2.03;;;19.70;33.80;;;;;;5016181;28;20586;-74
2021/05/13 10:48:15;;;;;;;4.63;2.20;;;19.80;34.70;;;;;;5018673;28;20454;-74
2021/05/13 10:50:48;;;;;;;6.13;2.20;;;20.00;33.60;;;;;;5058187;22;20475;-80
2021/05/13 10:53:39;;;;;;;3.87;1.93;;;20.40;33.60;;;;;;5042033;28;20417;-81
2021/05/13 10:56:15;;;;;;;1.90;1.80;;;20.40;32.80;;;;;;5042283;28;20468;-81
2021/05/13 10:59:13;;;;;;;2.60;2.10;;;20.30;32.40;;;;;;5041309;28;20432;-80
2021/05/13 11:02:00;;;;;;;3.53;1.90;;;19.90;33.00;;;;;;5022055;28;20700;-80
2021/05/13 11:04:36;;;;;;;2.17;1.30;;;19.40;34.00;;;;;;5017485;28;20459;-81
2021/05/13 11:07:05;;;;;;;1.80;1.70;;;19.40;33.60;;;;;;5000414;28;20511;-80
2021/05/13 11:09:55;;;;;;;2.03;1.47;;;19.30;33.00;;;;;;5006350;28;20464;-81
2021/05/13 11:12:23;;;;;;;2.20;1.57;;;19.20;32.70;;;;;;5018574;28;20447;-81
2021/05/13 11:15:23;;;;;;;4.50;3.37;;;19.60;33.00;;;;;;5024778;28;20459;-80
2021/05/13 11:18:25;;;;;;;1.33;1.23;;;20.10;31.10;;;;;;5023308;28;20439;-82
2021/05/13 11:20:55;;;;;;;4.20;1.37;;;20.50;29.20;;;;;;4951006;29;20442;-82
2021/05/13 11:23:24;;;;;;;2.93;1.33;;;20.40;29.20;;;;;;5019985;28;20434;-80
2021/05/13 11:25:53;;;;;;;1.70;1.10;;;20.50;29.20;;;;;;5030595;28;20461;-80
2021/05/13 11:28:32;;;;;;;3.03;1.27;;;20.70;29.40;;;;;;5009006;28;20440;-81
2021/05/13 11:31:13;;;;;;;5.80;1.47;;;20.50;29.20;;;;;;5031883;28;20505;-79
2021/05/13 11:33:41;;;;;;;2.80;1.30;;;20.80;29.50;;;;;;5017203;28;20443;-80
2021/05/13 11:36:10;;;;;;;4.47;1.37;;;20.70;29.40;;;;;;5020010;28;20421;-81
2021/05/13 11:38:37;;;;;;;2.10;1.43;;;20.70;29.40;;;;;;5016973;28;20433;-80
2021/05/13 11:41:05;;;;;;;1.50;1.40;;;20.70;29.40;;;;;;5029721;28;20463;-80
2021/05/13 11:43:33;;;;;;;1.63;1.50;;;20.30;29.70;;;;;;5038246;28;20445;-81
2021/05/13 11:46:01;;;;;;;2.30;1.40;;;20.10;30.20;;;;;;5023020;28;20924;-80
2021/05/13 11:48:36;;;;;;;3.73;1.50;;;19.90;31.40;;;;;;5010811;28;20469;-79
2021/05/13 11:51:05;;;;;;;1.50;1.40;;;20.40;30.40;;;;;;5014378;28;20484;-79
2021/05/13 11:53:33;;;;;;;1.57;1.40;;;20.60;29.40;;;;;;5033155;28;20466;-80
2021/05/13 11:56:00;;;;;;;2.70;1.50;;;20.50;29.80;;;;;;5026317;28;20590;-80
2021/05/13 11:58:45;;;;;;;3.77;2.60;;;20.80;30.10;;;;;;5026243;28;20439;-79
2021/05/13 12:01:16;;;;;;;2.40;1.63;;;20.90;29.50;;;;;;5024844;28;20474;-80
2021/05/13 12:03:43;;;;;;;4.63;1.47;;;20.70;29.40;;;;;;5026427;28;20463;-80
2021/05/13 12:06:10;;;;;;;2.40;1.87;;;20.70;29.40;;;;;;5024429;28;20493;-80
2021/05/13 12:08:38;;;;;;;2.77;1.43;;;20.50;29.20;;;;;;5020288;28;20459;-80
2021/05/13 12:11:17;;;;;;;2.60;1.47;;;20.40;29.90;;;;;;5017282;28;20463;-81
2021/05/13 12:13:45;;;;;;;5.07;1.57;;;20.80;29.30;;;;;;5020244;28;20479;-81
2021/05/13 12:16:12;;;;;;;4.50;1.30;;;20.90;29.50;;;;;;5038557;28;20429;-79
2021/05/13 12:18:42;;;;;;;2.93;1.60;;;21.00;28.80;;;;;;5026984;28;20441;-81
2021/05/13 12:21:09;;;;;;;4.87;1.30;;;21.00;29.00;;;;;;5008338;28;20463;-78
2021/05/13 12:23:36;;;;;;;2.20;1.47;;;21.10;29.30;;;;;;5009943;28;20456;-81
2021/05/13 12:26:02;;;;;;;2.17;1.60;;;21.00;29.00;;;;;;5009038;28;20483;-81
2021/05/13 12:28:29;;;;;;;3.47;1.43;;;21.20;29.80;;;;;;5021153;28;20443;-81
2021/05/13 12:30:57;;;;;;;3.00;1.23;;;21.50;27.10;;;;;;5025819;28;20950;-82
2021/05/13 12:33:25;;;;;;;3.43;1.53;;;21.50;26.40;;;;;;5012785;28;20835;-80
2021/05/13 12:35:53;;;;;;;1.60;1.47;;;21.60;26.90;;;;;;5012547;28;20443;-79
2021/05/13 12:38:21;;;;;;;5.17;1.10;;;21.60;27.30;;;;;;5005361;28;20440;-82
2021/05/13 12:40:49;;;;;;;4.07;1.40;;;21.40;27.40;;;;;;5004007;28;20592;-81
2021/05/13 12:43:19;;;;;;;3.23;0.87;;;20.80;28.60;;;;;;5005858;28;20492;-81
2021/05/13 12:45:47;;;;;;;2.30;1.30;;;20.10;30.00;;;;;;5011779;28;20472;-83
2021/05/13 12:48:22;;;;;;;5.40;1.17;;;19.70;30.80;;;;;;5033981;28;20445;-85
2021/05/13 12:50:57;;;;;;;6.83;1.47;;;18.80;33.30;;;;;;5033396;28;20483;-83
2021/05/13 12:53:24;;;;;;;0.83;0.80;;;18.20;36.50;;;;;;5017671;28;20451;-85
2021/05/13 12:55:51;;;;;;;4.03;1.17;;;18.00;36.90;;;;;;5021175;28;20431;-85
2021/05/13 12:58:19;;;;;;;2.83;1.20;;;17.40;38.40;;;;;;5038792;28;20459;-87